Time;durP1;ratioP1;P1;durP2;ratioP2;P2;SDS_P1;SDS_P2;PMS_P1;PMS_P2;Temp;Humidity;BMP_temperature;BMP_pressure;BME280_temperature;BME280_humidity;BME280_pressure;Samples;Min_cycle;Max_cycle;Signal;HPM_P1;HPM_P2
2022/09/28 00:02:25;;;;;;;10.68;7.35;;;9.50;99.90;;;;;;5050937;28;20040;-44
2022/09/28 00:04:52;;;;;;;17.08;8.63;;;9.50;99.90;;;;;;5050608;28;20397;-46
2022/09/28 00:07:20;;;;;;;12.43;9.07;;;9.50;99.90;;;;;;5052451;28;20060;-47
2022/09/28 00:09:47;;;;;;;12.27;8.75;;;9.40;99.90;;;;;;5051164;28;20040;-47
2022/09/28 00:12:13;;;;;;;16.58;10.50;;;9.40;99.90;;;;;;5050726;28;20071;-45
2022/09/28 00:14:42;;;;;;;14.10;10.18;;;9.40;99.90;;;;;;5050466;28;20044;-45
2022/09/28 00:17:09;;;;;;;13.15;8.55;;;9.40;99.90;;;;;;5051950;28;20057;-47
2022/09/28 00:19:36;;;;;;;15.75;9.32;;;9.40;99.90;;;;;;5049691;28;20053;-47
2022/09/28 00:22:03;;;;;;;14.38;10.07;;;9.40;99.90;;;;;;5052266;28;20052;-46
2022/09/28 00:24:31;;;;;;;12.10;8.82;;;9.40;99.90;;;;;;5048711;28;20099;-45
2022/09/28 00:27:00;;;;;;;11.77;8.23;;;9.40;99.90;;;;;;5051592;28;20131;-45
2022/09/28 00:29:27;;;;;;;14.43;10.40;;;9.40;99.90;;;;;;5050840;28;20453;-45
2022/09/28 00:31:58;;;;;;;13.43;9.57;;;9.40;99.90;;;;;;5047907;28;20114;-45
2022/09/28 00:34:25;;;;;;;9.90;8.43;;;9.30;99.90;;;;;;5048804;28;20132;-44
2022/09/28 00:36:52;;;;;;;10.95;9.43;;;9.30;99.90;;;;;;5052351;28;20452;-46
2022/09/28 00:39:19;;;;;;;14.73;10.75;;;9.30;99.90;;;;;;5051609;28;20480;-44
2022/09/28 00:41:47;;;;;;;11.38;8.85;;;9.40;99.90;;;;;;5050838;28;20052;-46
2022/09/28 00:44:50;;;;;;;13.10;10.13;;;9.30;99.90;;;;;;5049167;28;20178;-44
2022/09/28 00:47:26;;;;;;;10.63;9.10;;;9.40;99.90;;;;;;5052166;28;20048;-47
2022/09/28 00:49:55;;;;;;;15.35;11.25;;;9.40;99.90;;;;;;5050010;28;20068;-44
2022/09/28 00:52:24;;;;;;;16.27;12.40;;;9.40;99.90;;;;;;5056145;28;20052;-46
2022/09/28 00:54:51;;;;;;;19.90;13.15;;;9.40;99.90;;;;;;5051013;28;20044;-46
2022/09/28 00:57:19;;;;;;;18.75;12.88;;;9.40;99.90;;;;;;5050821;28;20103;-45
2022/09/28 00:59:46;;;;;;;17.65;13.00;;;9.30;99.90;;;;;;5051413;28;20052;-50
2022/09/28 01:02:13;;;;;;;14.80;10.90;;;9.40;99.90;;;;;;5048945;28;20561;-45
2022/09/28 01:04:40;;;;;;;17.98;13.30;;;9.40;99.90;;;;;;5044743;28;21769;-44
2022/09/28 01:07:08;;;;;;;17.00;12.32;;;9.40;99.90;;;;;;5051159;28;20493;-45
2022/09/28 01:09:36;;;;;;;14.40;11.20;;;9.40;99.90;;;;;;5051605;28;20049;-45
2022/09/28 01:12:03;;;;;;;20.55;14.60;;;9.30;99.90;;;;;;5049278;28;20118;-46
2022/09/28 01:14:31;;;;;;;18.23;12.18;;;9.30;99.90;;;;;;5047635;28;20090;-46
2022/09/28 01:17:04;;;;;;;20.17;11.50;;;9.30;99.90;;;;;;5048998;28;20094;-47
2022/09/28 01:19:41;;;;;;;19.17;13.30;;;9.40;99.90;;;;;;5052890;28;20106;-46
2022/09/28 01:22:14;;;;;;;18.52;14.27;;;9.40;99.90;;;;;;5071280;28;20053;-48
2022/09/28 01:24:42;;;;;;;22.55;13.65;;;9.30;99.90;;;;;;5048901;28;20044;-48
2022/09/28 01:27:15;;;;;;;19.17;13.43;;;9.40;99.90;;;;;;5055792;28;20056;-45
2022/09/28 01:29:46;;;;;;;22.70;12.70;;;9.40;99.90;;;;;;5052150;28;20107;-44
2022/09/28 01:32:18;;;;;;;14.30;10.88;;;9.40;99.90;;;;;;5051211;28;20378;-43
2022/09/28 01:34:51;;;;;;;19.60;14.07;;;9.40;99.90;;;;;;5037100;28;20498;-44
2022/09/28 01:37:19;;;;;;;17.50;12.05;;;9.40;99.90;;;;;;5059067;28;20088;-45
2022/09/28 01:39:47;;;;;;;17.52;12.60;;;9.40;99.90;;;;;;5049565;28;20072;-44
2022/09/28 01:42:17;;;;;;;15.55;11.10;;;9.40;99.90;;;;;;5052364;28;20106;-45
2022/09/28 01:44:45;;;;;;;17.58;13.00;;;9.40;99.90;;;;;;5050131;28;20091;-47
2022/09/28 01:47:13;;;;;;;19.73;13.63;;;9.40;99.90;;;;;;5049454;28;20049;-44
2022/09/28 01:49:41;;;;;;;21.83;15.27;;;9.40;99.90;;;;;;5049577;28;20044;-42
2022/09/28 01:52:12;;;;;;;20.63;13.32;;;9.30;99.90;;;;;;5051492;28;20083;-44
2022/09/28 01:54:42;;;;;;;16.55;13.60;;;9.30;99.90;;;;;;5051990;28;20090;-46
2022/09/28 01:57:10;;;;;;;16.38;11.20;;;9.30;99.90;;;;;;5053884;28;20045;-44
2022/09/28 01:59:40;;;;;;;19.67;12.95;;;9.40;99.90;;;;;;5053139;28;20041;-43
2022/09/28 02:02:09;;;;;;;22.52;14.88;;;9.30;99.90;;;;;;5052569;28;20485;-42
2022/09/28 02:04:38;;;;;;;18.95;13.20;;;9.30;99.90;;;;;;5053239;28;20128;-45
2022/09/28 02:07:07;;;;;;;14.35;11.00;;;9.40;99.90;;;;;;5053717;28;20061;-42
2022/09/28 02:09:35;;;;;;;17.95;14.10;;;9.30;99.90;;;;;;5054637;28;20099;-45
2022/09/28 02:12:05;;;;;;;21.23;15.63;;;9.30;99.90;;;;;;5054265;28;20473;-42
2022/09/28 02:14:32;;;;;;;24.13;16.42;;;9.30;99.90;;;;;;5053773;28;20104;-45
2022/09/28 02:17:00;;;;;;;23.98;17.63;;;9.30;99.90;;;;;;5066780;28;20488;-44
2022/09/28 02:19:28;;;;;;;24.02;17.75;;;9.30;99.90;;;;;;5054364;28;20053;-38
2022/09/28 02:21:57;;;;;;;25.92;18.25;;;9.30;99.90;;;;;;5054807;28;20061;-47
2022/09/28 02:24:27;;;;;;;26.00;18.42;;;9.30;99.90;;;;;;5052614;28;20041;-43
2022/09/28 02:26:55;;;;;;;20.00;14.52;;;9.30;99.90;;;;;;5053633;28;20111;-45
2022/09/28 02:29:28;;;;;;;23.15;16.88;;;9.30;99.90;;;;;;5052457;28;20048;-45
2022/09/28 02:31:55;;;;;;;42.53;18.10;;;9.30;99.90;;;;;;5054223;28;20451;-44
2022/09/28 02:34:23;;;;;;;29.25;16.75;;;9.30;99.90;;;;;;5055829;28;20053;-47
2022/09/28 02:36:50;;;;;;;25.35;17.65;;;9.30;99.90;;;;;;5053346;28;20045;-44
2022/09/28 02:39:17;;;;;;;38.80;16.65;;;9.30;99.90;;;;;;5051729;28;20061;-44
2022/09/28 02:41:53;;;;;;;16.23;13.45;;;9.20;99.90;;;;;;5055319;28;20127;-48
2022/09/28 02:44:32;;;;;;;24.00;14.77;;;9.30;99.90;;;;;;5066952;28;20105;-41
2022/09/28 02:47:00;;;;;;;22.75;17.42;;;9.20;99.90;;;;;;5050264;28;20057;-44
2022/09/28 02:49:31;;;;;;;21.48;17.13;;;9.20;99.90;;;;;;5053424;28;20489;-44
2022/09/28 02:52:13;;;;;;;68.40;19.58;;;9.20;99.90;;;;;;5053667;28;20049;-43
2022/09/28 02:55:05;;;;;;;35.35;17.77;;;9.20;99.90;;;;;;5054089;28;20060;-45
2022/09/28 02:57:37;;;;;;;20.73;14.88;;;9.20;99.90;;;;;;5050729;28;20041;-44
2022/09/28 03:00:07;;;;;;;19.50;14.32;;;9.10;99.90;;;;;;5051084;28;20053;-45
2022/09/28 03:02:36;;;;;;;39.38;18.08;;;9.10;99.90;;;;;;5054789;28;20127;-45
2022/09/28 03:05:10;;;;;;;23.23;16.02;;;9.10;99.90;;;;;;5050547;28;20083;-44
2022/09/28 03:07:39;;;;;;;35.47;14.32;;;9.10;99.90;;;;;;5051777;28;20455;-44
2022/09/28 03:10:09;;;;;;;69.75;18.23;;;9.00;99.90;;;;;;5053829;28;20061;-41
2022/09/28 03:12:36;;;;;;;26.42;14.88;;;9.00;99.90;;;;;;5073450;28;20377;-43
2022/09/28 03:15:08;;;;;;;27.45;14.00;;;9.10;99.90;;;;;;5055130;28;20044;-44
2022/09/28 03:17:35;;;;;;;;;;;9.00;99.90;;;;;;5051885;28;20128;-45
2022/09/28 03:20:02;;;;;;;27.27;14.70;;;9.00;99.90;;;;;;5053567;28;19924;-44
2022/09/28 03:22:30;;;;;;;26.33;16.00;;;9.00;99.90;;;;;;5053048;28;20099;-42
2022/09/28 03:24:57;;;;;;;33.10;15.77;;;9.00;99.90;;;;;;5053337;28;20084;-44
2022/09/28 03:27:24;;;;;;;36.28;16.55;;;9.00;99.90;;;;;;5057717;28;20048;-44
2022/09/28 03:29:51;;;;;;;21.95;15.60;;;9.00;99.90;;;;;;5052422;28;20087;-44
2022/09/28 03:32:17;;;;;;;16.63;12.52;;;9.00;99.90;;;;;;5051671;28;20048;-42
2022/09/28 03:34:44;;;;;;;32.95;13.27;;;9.00;99.90;;;;;;5051704;28;20126;-42
2022/09/28 03:37:11;;;;;;;35.85;17.23;;;9.00;99.90;;;;;;5051616;28;20067;-44
2022/09/28 03:39:39;;;;;;;18.08;13.35;;;9.00;99.90;;;;;;5059212;28;20558;-46
2022/09/28 03:42:06;;;;;;;28.05;16.20;;;9.00;99.90;;;;;;5052262;28;20048;-46
2022/09/28 03:44:33;;;;;;;32.97;14.82;;;8.90;99.90;;;;;;5050304;28;20099;-44
2022/09/28 03:47:00;;;;;;;22.88;14.25;;;9.00;99.90;;;;;;5049565;28;20055;-41
2022/09/28 03:49:27;;;;;;;34.03;15.00;;;9.00;99.90;;;;;;5051555;28;20057;-45
2022/09/28 03:51:53;;;;;;;52.63;16.42;;;9.00;99.90;;;;;;5049605;28;20057;-43
2022/09/28 03:54:20;;;;;;;94.20;18.58;;;9.00;99.90;;;;;;5049871;28;20094;-38
2022/09/28 03:56:49;;;;;;;86.85;18.00;;;8.90;99.90;;;;;;5049560;28;20592;-44
2022/09/28 03:59:16;;;;;;;26.33;16.75;;;8.90;99.90;;;;;;5052048;28;20044;-45
2022/09/28 04:01:43;;;;;;;67.07;18.95;;;8.90;99.90;;;;;;5052184;28;20106;-44
2022/09/28 04:04:11;;;;;;;62.92;18.98;;;8.90;99.90;;;;;;5051717;28;20047;-43
2022/09/28 04:06:38;;;;;;;23.38;14.98;;;8.90;99.90;;;;;;5050220;28;20053;-44
2022/09/28 04:09:05;;;;;;;21.25;13.90;;;8.80;99.90;;;;;;5051179;28;20634;-44
2022/09/28 04:11:32;;;;;;;45.50;16.67;;;8.80;99.90;;;;;;5052433;28;20091;-47
2022/09/28 04:14:00;;;;;;;58.33;16.70;;;8.90;99.90;;;;;;5052029;28;20045;-44
2022/09/28 04:16:27;;;;;;;33.20;15.82;;;8.90;99.90;;;;;;5051167;28;20053;-44
2022/09/28 04:18:54;;;;;;;49.17;15.93;;;8.80;99.90;;;;;;5043452;28;20098;-46
2022/09/28 04:21:20;;;;;;;45.47;17.00;;;8.90;99.90;;;;;;5050853;28;20053;-45
2022/09/28 04:23:47;;;;;;;34.63;17.17;;;8.90;99.90;;;;;;5055502;28;20118;-45
2022/09/28 04:26:16;;;;;;;37.13;14.93;;;8.90;99.90;;;;;;5054619;28;20056;-44
2022/09/28 04:31:29;;;;;;;25.75;15.30;;;8.90;99.90;;;;;;5068947;28;20408;-46
2022/09/28 04:33:56;;;;;;;35.53;15.65;;;8.80;99.90;;;;;;5035370;28;20476;-45
2022/09/28 04:36:23;;;;;;;20.63;14.30;;;8.80;99.90;;;;;;5050035;28;20098;-43
2022/09/28 04:38:51;;;;;;;48.65;15.95;;;8.90;99.90;;;;;;5045315;28;20089;-43
2022/09/28 04:41:18;;;;;;;39.97;14.90;;;8.80;99.90;;;;;;5048919;28;20057;-44
2022/09/28 04:43:46;;;;;;;24.23;14.70;;;8.80;99.90;;;;;;5051153;28;20045;-44
2022/09/28 04:46:13;;;;;;;25.40;13.45;;;8.80;99.90;;;;;;5049753;28;20052;-45
2022/09/28 04:48:41;;;;;;;18.17;11.07;;;8.80;99.90;;;;;;5050447;28;20106;-47
2022/09/28 04:51:08;;;;;;;33.17;14.90;;;8.80;99.90;;;;;;5056031;28;20053;-46
2022/09/28 04:53:35;;;;;;;20.65;13.63;;;8.80;99.90;;;;;;5050052;28;20110;-49
2022/09/28 04:56:03;;;;;;;49.28;15.13;;;8.80;99.90;;;;;;5051685;28;20045;-46
2022/09/28 04:58:30;;;;;;;27.35;15.15;;;8.80;99.90;;;;;;5061017;28;20072;-45
2022/09/28 05:00:58;;;;;;;38.92;15.45;;;8.80;99.90;;;;;;5051136;28;20129;-44
2022/09/28 05:03:25;;;;;;;67.72;15.40;;;8.80;99.90;;;;;;5052083;28;20056;-42
2022/09/28 05:05:53;;;;;;;41.38;13.02;;;8.80;99.90;;;;;;5063839;28;20098;-44
2022/09/28 05:08:20;;;;;;;29.45;14.57;;;8.80;99.90;;;;;;5060424;28;20413;-45
2022/09/28 05:10:47;;;;;;;27.10;12.50;;;8.70;99.90;;;;;;5060839;28;20060;-46
2022/09/28 05:13:16;;;;;;;29.20;12.60;;;8.70;99.90;;;;;;5050651;28;20505;-39
2022/09/28 05:15:43;;;;;;;45.22;14.02;;;8.70;99.90;;;;;;5047148;28;20119;-44
2022/09/28 05:18:09;;;;;;;37.47;13.55;;;8.70;99.90;;;;;;5050230;28;20052;-45
2022/09/28 05:20:40;;;;;;;29.35;14.35;;;8.70;99.90;;;;;;5066776;28;20048;-42
2022/09/28 05:23:11;;;;;;;19.52;14.15;;;8.70;99.90;;;;;;5071825;28;20393;-43
2022/09/28 05:25:38;;;;;;;27.97;13.17;;;8.70;99.90;;;;;;5052149;28;20489;-44
2022/09/28 05:28:05;;;;;;;13.50;10.25;;;8.80;99.90;;;;;;5054073;28;20690;-45
2022/09/28 05:30:31;;;;;;;18.13;12.15;;;8.70;99.90;;;;;;5063705;28;20098;-49
2022/09/28 05:32:58;;;;;;;21.35;11.88;;;8.70;99.90;;;;;;5059045;28;20044;-44
2022/09/28 05:35:25;;;;;;;25.60;14.25;;;8.70;99.90;;;;;;5067958;28;20538;-42
2022/09/28 05:37:53;;;;;;;25.98;14.80;;;8.70;99.90;;;;;;5055106;28;20049;-47
2022/09/28 05:40:21;;;;;;;47.22;15.73;;;8.70;99.90;;;;;;5054646;28;20059;-48
2022/09/28 05:42:48;;;;;;;22.83;13.73;;;8.70;99.90;;;;;;5055377;28;20056;-44
2022/09/28 05:45:15;;;;;;;37.97;14.27;;;8.70;99.90;;;;;;5055202;28;20533;-44
2022/09/28 05:47:44;;;;;;;19.27;14.48;;;8.70;99.90;;;;;;5055920;28;20053;-45
2022/09/28 05:50:14;;;;;;;17.60;14.43;;;8.70;99.90;;;;;;5055210;28;20052;-45
2022/09/28 05:52:42;;;;;;;21.33;14.95;;;8.70;99.90;;;;;;5055314;28;20053;-46
2022/09/28 05:55:09;;;;;;;24.15;14.77;;;8.70;99.90;;;;;;5055904;28;20092;-45
2022/09/28 05:57:38;;;;;;;19.88;15.13;;;8.70;99.90;;;;;;5054275;28;20136;-44
2022/09/28 06:00:06;;;;;;;51.45;16.60;;;8.70;99.90;;;;;;5054353;28;20048;-45
2022/09/28 06:02:33;;;;;;;18.02;13.32;;;8.80;99.90;;;;;;5056049;28;20045;-46
2022/09/28 06:05:00;;;;;;;26.27;15.60;;;8.80;99.90;;;;;;5054834;28;20057;-45
2022/09/28 06:07:27;;;;;;;24.77;16.38;;;8.80;99.90;;;;;;5053446;28;20057;-44
2022/09/28 06:09:53;;;;;;;23.05;16.02;;;8.80;99.90;;;;;;5055661;28;20052;-44
2022/09/28 06:12:20;;;;;;;20.80;15.18;;;8.80;99.90;;;;;;5055531;28;20049;-48
2022/09/28 06:14:49;;;;;;;17.30;14.48;;;8.80;99.90;;;;;;5054628;28;20064;-45
2022/09/28 06:17:15;;;;;;;23.95;16.83;;;8.80;99.90;;;;;;5053517;28;20053;-44
2022/09/28 06:19:42;;;;;;;38.67;17.88;;;8.80;99.90;;;;;;5055657;28;20052;-49
2022/09/28 06:22:09;;;;;;;31.10;16.75;;;8.80;99.90;;;;;;5054515;28;20451;-51
2022/09/28 06:24:36;;;;;;;25.60;16.05;;;8.80;99.90;;;;;;5054444;28;20103;-46
2022/09/28 06:27:03;;;;;;;43.60;16.80;;;8.80;99.90;;;;;;5053258;28;20110;-47
2022/09/28 06:29:30;;;;;;;63.50;17.42;;;8.80;99.90;;;;;;5055553;28;20053;-45
2022/09/28 06:31:58;;;;;;;25.45;16.40;;;8.80;99.90;;;;;;5040498;28;20481;-46
2022/09/28 06:34:25;;;;;;;30.05;16.52;;;8.70;99.90;;;;;;5035406;28;20076;-47
2022/09/28 06:36:52;;;;;;;26.45;17.67;;;8.70;99.90;;;;;;5043978;28;20106;-45
2022/09/28 06:39:18;;;;;;;18.90;15.60;;;8.70;99.90;;;;;;5052922;28;20135;-43
2022/09/28 06:41:45;;;;;;;64.57;20.02;;;8.80;99.90;;;;;;5055251;28;20056;-46
2022/09/28 06:44:12;;;;;;;45.63;19.35;;;8.80;99.90;;;;;;5054215;28;20052;-46
2022/09/28 06:46:39;;;;;;;114.00;19.35;;;8.80;99.90;;;;;;5052932;28;20052;-45
2022/09/28 06:49:08;;;;;;;74.78;18.25;;;8.80;99.90;;;;;;5053697;28;20104;-43
2022/09/28 06:51:36;;;;;;;36.90;17.23;;;8.80;99.90;;;;;;5054926;28;20098;-46
2022/09/28 06:54:03;;;;;;;64.97;19.08;;;8.80;99.90;;;;;;5054911;28;20053;-45
2022/09/28 06:56:30;;;;;;;99.07;20.45;;;8.80;99.90;;;;;;5052856;28;20111;-46
2022/09/28 06:58:57;;;;;;;70.35;18.65;;;8.80;99.90;;;;;;5054020;28;20118;-45
2022/09/28 07:01:24;;;;;;;30.25;17.00;;;8.80;99.90;;;;;;5055008;28;20076;-45
2022/09/28 07:03:50;;;;;;;37.38;18.83;;;8.80;99.90;;;;;;5054037;28;20383;-48
2022/09/28 07:06:19;;;;;;;36.00;18.35;;;8.90;99.90;;;;;;5053654;28;20045;-45
2022/09/28 07:08:46;;;;;;;36.33;19.08;;;8.90;99.90;;;;;;5054624;28;20084;-45
2022/09/28 07:11:14;;;;;;;45.85;18.90;;;9.00;99.90;;;;;;5053357;28;20099;-45
2022/09/28 07:13:40;;;;;;;39.13;19.15;;;9.00;99.90;;;;;;5054685;28;20072;-46
2022/09/28 07:16:07;;;;;;;34.78;18.50;;;9.10;99.90;;;;;;5053005;28;20095;-45
2022/09/28 07:18:34;;;;;;;22.92;16.83;;;9.20;99.90;;;;;;5054331;28;20048;-48
2022/09/28 07:21:03;;;;;;;21.55;16.20;;;9.20;99.90;;;;;;5053232;28;20052;-45
2022/09/28 07:23:31;;;;;;;30.17;18.25;;;9.30;99.90;;;;;;5054262;28;20053;-48
2022/09/28 07:25:58;;;;;;;25.88;17.42;;;9.30;99.90;;;;;;5054113;28;20044;-45
2022/09/28 07:28:24;;;;;;;26.92;16.95;;;9.30;99.90;;;;;;5052336;28;20048;-46
2022/09/28 07:30:51;;;;;;;26.55;17.83;;;9.30;99.90;;;;;;5053153;28;20064;-44
2022/09/28 07:33:18;;;;;;;31.95;19.88;;;9.40;99.90;;;;;;5052856;28;20053;-50
2022/09/28 07:35:52;;;;;;;25.80;17.80;;;9.30;99.90;;;;;;5052894;28;20053;-44
2022/09/28 07:38:18;;;;;;;24.60;17.67;;;9.40;99.90;;;;;;5052121;28;20079;-45
2022/09/28 07:43:31;;;;;;;23.38;17.25;;;9.60;99.90;;;;;;5069513;28;20561;-45
2022/09/28 07:45:58;;;;;;;24.60;16.63;;;9.70;99.90;;;;;;5053818;28;20071;-46
2022/09/28 07:48:24;;;;;;;23.10;17.75;;;9.70;99.90;;;;;;5053042;28;20049;-44
2022/09/28 07:50:52;;;;;;;24.42;17.90;;;9.80;99.90;;;;;;5053515;28;20045;-45
2022/09/28 07:53:19;;;;;;;25.13;18.42;;;9.90;99.90;;;;;;5053682;28;20057;-44
2022/09/28 07:55:52;;;;;;;26.00;19.45;;;10.10;99.90;;;;;;5052768;28;20049;-42
2022/09/28 07:58:19;;;;;;;24.90;18.23;;;10.30;99.90;;;;;;5052807;28;20456;-44
2022/09/28 08:00:47;;;;;;;23.25;17.45;;;10.50;99.90;;;;;;5051697;28;20099;-45
2022/09/28 08:03:14;;;;;;;20.50;16.15;;;10.70;99.90;;;;;;5069374;28;20053;-48
2022/09/28 08:05:41;;;;;;;20.63;16.27;;;10.80;99.90;;;;;;5052296;28;20102;-46
2022/09/28 08:08:08;;;;;;;17.98;14.60;;;11.00;99.90;;;;;;5051562;28;20130;-48
2022/09/28 08:10:36;;;;;;;18.50;14.23;;;11.00;99.90;;;;;;5052000;28;20052;-46
2022/09/28 08:13:04;;;;;;;17.60;14.27;;;11.00;99.90;;;;;;5053350;28;20515;-44
2022/09/28 08:15:35;;;;;;;18.70;13.93;;;11.00;99.90;;;;;;5053430;28;20091;-48
2022/09/28 08:18:03;;;;;;;18.58;13.85;;;11.00;99.90;;;;;;5051449;28;20045;-45
2022/09/28 08:23:14;;;;;;;18.00;13.70;;;11.00;99.90;;;;;;5048878;28;20092;-46
2022/09/28 08:25:43;;;;;;;16.20;12.10;;;11.10;99.90;;;;;;5032018;28;20057;-45
2022/09/28 08:28:12;;;;;;;17.60;12.93;;;11.10;99.90;;;;;;5045040;28;20061;-45
2022/09/28 08:30:38;;;;;;;19.25;13.60;;;11.20;99.90;;;;;;5052179;28;20109;-43
2022/09/28 08:33:06;;;;;;;15.88;12.55;;;11.30;99.90;;;;;;5051947;28;20084;-43
2022/09/28 08:35:33;;;;;;;16.52;13.32;;;11.40;99.90;;;;;;5053172;28;20049;-45
2022/09/28 08:38:02;;;;;;;15.90;12.95;;;11.50;99.90;;;;;;5050361;28;20106;-47
2022/09/28 08:40:29;;;;;;;18.33;12.80;;;11.50;99.90;;;;;;5052966;28;20144;-44
2022/09/28 08:42:57;;;;;;;15.23;11.40;;;11.60;99.90;;;;;;5052909;28;20417;-43
2022/09/28 08:45:27;;;;;;;14.70;12.20;;;11.70;99.90;;;;;;5052708;28;20118;-42
2022/09/28 08:50:45;;;;;;;18.08;12.45;;;11.60;99.90;;;;;;5052932;28;20045;-43
2022/09/28 08:53:18;;;;;;;20.50;14.18;;;11.50;99.90;;;;;;5052851;28;20045;-43
2022/09/28 08:55:45;;;;;;;18.15;14.15;;;11.60;99.90;;;;;;5051794;28;20053;-44
2022/09/28 08:58:13;;;;;;;16.08;12.63;;;11.60;99.90;;;;;;5050697;28;20053;-43
2022/09/28 09:00:43;;;;;;;19.77;13.73;;;11.70;99.90;;;;;;5051516;28;20049;-42
2022/09/28 09:03:12;;;;;;;15.32;11.70;;;11.90;99.90;;;;;;5052194;28;20052;-41
2022/09/28 09:05:48;;;;;;;17.35;12.25;;;12.00;99.90;;;;;;5050750;28;20551;-40
2022/09/28 09:08:30;;;;;;;14.43;10.23;;;12.10;99.90;;;;;;5051667;28;20469;-40
2022/09/28 09:10:59;;;;;;;15.07;11.43;;;12.20;99.90;;;;;;5051528;28;20041;-44
2022/09/28 09:13:38;;;;;;;15.10;11.55;;;12.30;99.90;;;;;;5052483;28;20493;-42
2022/09/28 09:16:09;;;;;;;14.57;10.75;;;12.40;99.90;;;;;;5050654;28;20048;-43
2022/09/28 09:18:37;;;;;;;16.05;10.60;;;12.40;99.90;;;;;;5052471;28;20049;-43
2022/09/28 09:21:07;;;;;;;14.07;10.32;;;12.50;99.90;;;;;;5052409;28;20049;-43
2022/09/28 09:23:37;;;;;;;13.82;10.15;;;12.50;99.90;;;;;;5052293;28;20057;-43
2022/09/28 09:26:09;;;;;;;13.70;10.38;;;12.60;99.90;;;;;;5051498;28;20104;-42
2022/09/28 09:28:47;;;;;;;12.35;9.45;;;12.70;99.90;;;;;;5052520;28;20080;-44
2022/09/28 09:31:22;;;;;;;11.90;9.48;;;12.90;99.90;;;;;;5052387;28;20144;-42
2022/09/28 09:34:01;;;;;;;10.98;8.50;;;13.20;99.90;;;;;;5052275;28;20118;-40
2022/09/28 09:36:34;;;;;;;10.35;7.65;;;13.30;99.90;;;;;;5049957;28;20095;-42
2022/09/28 09:39:14;;;;;;;10.73;6.97;;;13.40;99.90;;;;;;5052428;28;20052;-43
2022/09/28 09:41:47;;;;;;;7.55;6.47;;;13.50;99.90;;;;;;5052191;28;20405;-41
2022/09/28 09:44:25;;;;;;;8.38;6.45;;;13.60;99.90;;;;;;5051273;28;20052;-41
2022/09/28 09:46:55;;;;;;;12.25;7.07;;;13.60;99.90;;;;;;5066773;28;20052;-43
2022/09/28 09:49:23;;;;;;;9.93;7.13;;;13.60;99.90;;;;;;5052296;28;20095;-43
2022/09/28 09:51:52;;;;;;;10.50;7.20;;;13.70;99.90;;;;;;5051280;28;20111;-42
2022/09/28 09:54:21;;;;;;;8.77;6.65;;;13.80;99.90;;;;;;5067901;28;20061;-45
2022/09/28 09:56:52;;;;;;;8.35;6.45;;;13.80;99.90;;;;;;5066581;28;20045;-44
2022/09/28 09:59:21;;;;;;;8.15;6.78;;;13.90;99.90;;;;;;5052132;28;20158;-47
2022/09/28 10:01:48;;;;;;;8.70;6.72;;;13.90;99.90;;;;;;5050999;28;20412;-44
2022/09/28 10:04:19;;;;;;;9.18;6.75;;;13.90;99.90;;;;;;5052258;28;20451;-44
2022/09/28 10:06:46;;;;;;;8.47;6.10;;;13.90;99.90;;;;;;5066857;28;20049;-43
2022/09/28 10:09:14;;;;;;;7.53;4.30;;;13.90;99.90;;;;;;5067770;28;20103;-43
2022/09/28 10:11:43;;;;;;;6.93;4.07;;;14.00;99.90;;;;;;5051886;28;20416;-43
2022/09/28 10:14:11;;;;;;;6.05;3.03;;;14.30;99.90;;;;;;5053775;28;20061;-42
2022/09/28 10:16:38;;;;;;;6.18;3.65;;;14.50;99.90;;;;;;5053847;28;20111;-43
2022/09/28 10:19:05;;;;;;;7.43;3.47;;;14.60;99.90;;;;;;5055587;28;20052;-46
2022/09/28 10:21:36;;;;;;;4.95;3.60;;;14.70;99.90;;;;;;5053367;28;20496;-45
2022/09/28 10:24:03;;;;;;;7.20;4.67;;;14.60;99.90;;;;;;5070950;28;20480;-42
2022/09/28 10:26:32;;;;;;;4.80;3.63;;;14.50;99.90;;;;;;5055234;28;20307;-45
2022/09/28 10:29:00;;;;;;;4.10;2.85;;;14.40;99.90;;;;;;5071231;28;20130;-43
2022/09/28 10:31:34;;;;;;;5.75;2.33;;;14.40;99.90;;;;;;5054494;28;20045;-42
2022/09/28 10:34:01;;;;;;;4.47;2.60;;;14.40;99.90;;;;;;5054377;28;20057;-42
2022/09/28 10:36:28;;;;;;;3.90;2.25;;;14.30;99.90;;;;;;5055261;28;20052;-44
2022/09/28 10:38:56;;;;;;;6.05;2.45;;;14.40;99.90;;;;;;5070739;28;20049;-44
2022/09/28 10:41:23;;;;;;;4.35;2.15;;;14.40;99.90;;;;;;5070916;28;20060;-42
2022/09/28 10:44:04;;;;;;;5.82;2.40;;;14.60;99.90;;;;;;5069694;28;20084;-42
2022/09/28 10:46:32;;;;;;;4.55;2.08;;;14.80;99.90;;;;;;5070721;28;20552;-41
2022/09/28 10:48:59;;;;;;;4.82;1.50;;;14.90;99.90;;;;;;5053829;28;20059;-44
2022/09/28 10:51:40;;;;;;;2.78;1.92;;;14.90;99.90;;;;;;5070619;28;20091;-43
2022/09/28 10:54:13;;;;;;;5.28;1.65;;;14.80;99.90;;;;;;5054020;28;20501;-43
2022/09/28 10:56:40;;;;;;;3.10;1.60;;;14.70;99.90;;;;;;5052994;28;20115;-42
2022/09/28 10:59:22;;;;;;;4.35;1.88;;;14.70;99.90;;;;;;5054881;28;20048;-44
2022/09/28 11:01:52;;;;;;;2.97;1.42;;;14.60;99.90;;;;;;5068871;28;20091;-42
2022/09/28 11:04:20;;;;;;;2.95;1.20;;;14.60;99.90;;;;;;5054686;28;20440;-41
2022/09/28 11:06:47;;;;;;;4.50;1.55;;;14.70;99.90;;;;;;5054545;28;20436;-41
2022/09/28 11:09:24;;;;;;;3.47;1.60;;;14.70;99.90;;;;;;5070266;28;20566;-41
2022/09/28 11:11:51;;;;;;;3.00;1.58;;;14.70;99.90;;;;;;5053645;28;20103;-40
2022/09/28 11:14:25;;;;;;;4.65;1.52;;;14.70;99.90;;;;;;5052699;28;20107;-40
2022/09/28 11:17:14;;;;;;;6.00;1.35;;;14.90;99.90;;;;;;5050696;28;20064;-43
2022/09/28 11:19:42;;;;;;;3.58;1.10;;;15.10;99.90;;;;;;5069597;28;20382;-39
2022/09/28 11:22:20;;;;;;;3.70;1.25;;;15.10;99.90;;;;;;5040173;28;20141;-40
2022/09/28 11:24:48;;;;;;;3.90;1.40;;;15.20;99.90;;;;;;5033816;28;20536;-39
2022/09/28 11:27:22;;;;;;;6.15;1.25;;;15.50;99.90;;;;;;5038536;28;20037;-40
2022/09/28 11:29:55;;;;;;;2.50;1.48;;;15.80;99.90;;;;;;5054476;28;20049;-41
2022/09/28 11:32:23;;;;;;;3.10;1.30;;;16.00;99.90;;;;;;5053245;28;20052;-41
2022/09/28 11:34:50;;;;;;;4.22;1.30;;;16.00;99.90;;;;;;5054202;28;20111;-40
2022/09/28 11:37:38;;;;;;;4.25;1.20;;;16.10;99.80;;;;;;5068771;28;20692;-40
2022/09/28 11:40:16;;;;;;;4.75;1.77;;;16.40;99.00;;;;;;5052618;28;20049;-41
2022/09/28 11:42:47;;;;;;;6.07;1.60;;;16.60;98.80;;;;;;5053104;28;20063;-40
2022/09/28 11:45:32;;;;;;;4.82;1.60;;;16.80;98.60;;;;;;5053225;28;20397;-41
2022/09/28 11:47:59;;;;;;;3.42;1.30;;;16.80;98.10;;;;;;5053863;28;20051;-42
2022/09/28 11:50:34;;;;;;;4.80;1.20;;;16.70;98.50;;;;;;5053728;28;20057;-41
2022/09/28 11:53:09;;;;;;;2.65;1.10;;;16.70;98.30;;;;;;5054080;28;20107;-39
2022/09/28 11:55:40;;;;;;;1.60;1.00;;;16.60;98.30;;;;;;5051833;28;20533;-41
2022/09/28 11:58:11;;;;;;;3.55;1.58;;;16.50;98.60;;;;;;5052895;28;20053;-39
2022/09/28 12:00:40;;;;;;;6.60;1.40;;;16.50;98.80;;;;;;5052762;28;20060;-41
2022/09/28 12:03:08;;;;;;;2.13;1.30;;;16.50;98.90;;;;;;5069265;28;20126;-40
2022/09/28 12:05:37;;;;;;;3.35;1.20;;;16.40;98.80;;;;;;5052893;28;20049;-41
2022/09/28 12:08:06;;;;;;;2.00;0.90;;;16.40;98.80;;;;;;5053613;28;20098;-41
2022/09/28 12:10:38;;;;;;;2.10;0.90;;;16.50;98.70;;;;;;5052745;28;20049;-40
2022/09/28 12:13:08;;;;;;;;;;;16.70;98.50;;;;;;5054123;28;20049;-40
2022/09/28 12:15:42;;;;;;;2.53;0.95;;;16.80;97.50;;;;;;5051526;28;19921;-41
2022/09/28 12:18:12;;;;;;;0.82;0.60;;;16.90;97.80;;;;;;5069309;28;20056;-39
2022/09/28 12:20:42;;;;;;;0.90;0.70;;;17.00;96.80;;;;;;5052384;28;20056;-40
2022/09/28 12:23:13;;;;;;;2.15;0.65;;;17.10;96.30;;;;;;5033206;28;20524;-40
2022/09/28 12:25:45;;;;;;;1.65;0.70;;;17.20;95.70;;;;;;5042176;28;20052;-43
2022/09/28 12:28:16;;;;;;;2.35;0.85;;;17.30;95.80;;;;;;5068627;28;20511;-41
2022/09/28 12:30:43;;;;;;;;;;;17.40;95.90;;;;;;5051918;28;20048;-41
2022/09/28 12:33:11;;;;;;;4.28;0.80;;;17.50;96.40;;;;;;5048666;28;19920;-42
2022/09/28 12:35:45;;;;;;;1.83;0.70;;;17.50;95.50;;;;;;5047889;28;20036;-40
2022/09/28 12:38:24;;;;;;;1.42;0.55;;;17.60;95.50;;;;;;5050470;28;20056;-42
2022/09/28 12:40:55;;;;;;;2.75;0.73;;;17.70;95.60;;;;;;5048381;28;20052;-40
2022/09/28 12:43:39;;;;;;;1.70;0.80;;;17.90;95.60;;;;;;5051489;28;20061;-41
2022/09/28 12:46:52;;;;;;;1.63;0.80;;;18.10;94.90;;;;;;5047518;28;20114;-41
2022/09/28 12:49:28;;;;;;;2.25;0.45;;;18.30;95.10;;;;;;5031650;28;20052;-39
2022/09/28 12:51:56;;;;;;;3.70;0.60;;;18.40;94.90;;;;;;5066860;28;20084;-40
2022/09/28 12:54:56;;;;;;;2.08;0.80;;;18.40;94.20;;;;;;5049792;28;20064;-41
2022/09/28 12:57:34;;;;;;;4.20;0.95;;;18.50;93.00;;;;;;5016719;28;20053;-41
2022/09/28 13:00:03;;;;;;;1.27;0.68;;;18.60;94.30;;;;;;5047071;28;20053;-40
2022/09/28 13:02:56;;;;;;;1.55;0.80;;;18.60;94.40;;;;;;5047579;28;20044;-39
2022/09/28 13:05:33;;;;;;;0.98;0.70;;;18.70;93.90;;;;;;5048603;28;20060;-39